sensor_id;sensor_type;location;lat;lon;timestamp;P1;durP1;ratioP1;P2;durP2;ratioP2
4521;SDS011;2273;48.464;11.926;2023-07-29T00:00:50;9.27;;;4.60;;
4521;SDS011;2273;48.464;11.926;2023-07-29T00:03:15;8.23;;;5.00;;
4521;SDS011;2273;48.464;11.926;2023-07-29T00:05:40;5.80;;;4.40;;
4521;SDS011;2273;48.464;11.926;2023-07-29T00:08:06;11.93;;;4.90;;
4521;SDS011;2273;48.464;11.926;2023-07-29T00:10:32;6.10;;;4.53;;
4521;SDS011;2273;48.464;11.926;2023-07-29T00:12:58;9.67;;;4.40;;
4521;SDS011;2273;48.464;11.926;2023-07-29T00:15:24;7.60;;;4.70;;
4521;SDS011;2273;48.464;11.926;2023-07-29T00:17:49;8.13;;;4.23;;
4521;SDS011;2273;48.464;11.926;2023-07-29T00:20:14;8.07;;;4.20;;
4521;SDS011;2273;48.464;11.926;2023-07-29T00:22:40;9.23;;;4.30;;
4521;SDS011;2273;48.464;11.926;2023-07-29T00:25:05;5.07;;;3.90;;
4521;SDS011;2273;48.464;11.926;2023-07-29T00:27:31;8.70;;;4.40;;
4521;SDS011;2273;48.464;11.926;2023-07-29T00:29:56;5.80;;;4.37;;
4521;SDS011;2273;48.464;11.926;2023-07-29T00:32:22;5.90;;;4.27;;
4521;SDS011;2273;48.464;11.926;2023-07-29T00:34:47;10.10;;;3.70;;
4521;SDS011;2273;48.464;11.926;2023-07-29T00:37:13;5.33;;;3.70;;
4521;SDS011;2273;48.464;11.926;2023-07-29T00:39:38;5.20;;;3.77;;
4521;SDS011;2273;48.464;11.926;2023-07-29T00:42:04;6.00;;;3.87;;
4521;SDS011;2273;48.464;11.926;2023-07-29T00:44:30;7.67;;;3.60;;
4521;SDS011;2273;48.464;11.926;2023-07-29T00:47:00;9.67;;;3.37;;
4521;SDS011;2273;48.464;11.926;2023-07-29T00:49:28;5.43;;;3.67;;
4521;SDS011;2273;48.464;11.926;2023-07-29T00:51:53;5.30;;;3.40;;
4521;SDS011;2273;48.464;11.926;2023-07-29T00:54:19;6.10;;;3.60;;
4521;SDS011;2273;48.464;11.926;2023-07-29T00:56:44;6.20;;;3.80;;
4521;SDS011;2273;48.464;11.926;2023-07-29T00:59:11;6.03;;;3.50;;
4521;SDS011;2273;48.464;11.926;2023-07-29T01:01:37;6.10;;;3.90;;
4521;SDS011;2273;48.464;11.926;2023-07-29T01:04:06;10.00;;;6.50;;
4521;SDS011;2273;48.464;11.926;2023-07-29T01:09:09;6.57;;;3.83;;
4521;SDS011;2273;48.464;11.926;2023-07-29T01:12:46;6.10;;;4.20;;
4521;SDS011;2273;48.464;11.926;2023-07-29T01:14:46;7.13;;;3.70;;
4521;SDS011;2273;48.464;11.926;2023-07-29T01:17:33;11.63;;;4.30;;
4521;SDS011;2273;48.464;11.926;2023-07-29T01:22:35;5.10;;;3.80;;
4521;SDS011;2273;48.464;11.926;2023-07-29T01:25:02;6.13;;;3.97;;
4521;SDS011;2273;48.464;11.926;2023-07-29T01:27:29;8.83;;;4.27;;
4521;SDS011;2273;48.464;11.926;2023-07-29T01:29:55;5.50;;;4.10;;
4521;SDS011;2273;48.464;11.926;2023-07-29T01:32:25;5.10;;;3.67;;
4521;SDS011;2273;48.464;11.926;2023-07-29T01:37:52;5.93;;;4.00;;
4521;SDS011;2273;48.464;11.926;2023-07-29T01:40:22;4.13;;;3.30;;
4521;SDS011;2273;48.464;11.926;2023-07-29T01:42:49;8.17;;;3.77;;
4521;SDS011;2273;48.464;11.926;2023-07-29T01:45:15;6.23;;;4.53;;
4521;SDS011;2273;48.464;11.926;2023-07-29T01:47:40;6.07;;;4.00;;
4521;SDS011;2273;48.464;11.926;2023-07-29T01:50:07;5.70;;;4.63;;
4521;SDS011;2273;48.464;11.926;2023-07-29T01:52:33;5.97;;;4.57;;
4521;SDS011;2273;48.464;11.926;2023-07-29T01:54:58;8.07;;;5.10;;
4521;SDS011;2273;48.464;11.926;2023-07-29T01:57:24;12.17;;;5.40;;
4521;SDS011;2273;48.464;11.926;2023-07-29T01:59:49;5.60;;;3.93;;
4521;SDS011;2273;48.464;11.926;2023-07-29T02:02:15;6.30;;;4.57;;
4521;SDS011;2273;48.464;11.926;2023-07-29T02:04:40;10.30;;;4.27;;
4521;SDS011;2273;48.464;11.926;2023-07-29T02:07:06;6.23;;;4.07;;
4521;SDS011;2273;48.464;11.926;2023-07-29T02:09:31;7.07;;;4.00;;
4521;SDS011;2273;48.464;11.926;2023-07-29T02:11:57;9.20;;;5.20;;
4521;SDS011;2273;48.464;11.926;2023-07-29T02:14:22;7.43;;;4.90;;
4521;SDS011;2273;48.464;11.926;2023-07-29T02:16:48;6.70;;;4.53;;
4521;SDS011;2273;48.464;11.926;2023-07-29T02:19:14;5.10;;;3.90;;
4521;SDS011;2273;48.464;11.926;2023-07-29T02:21:40;8.13;;;4.60;;
4521;SDS011;2273;48.464;11.926;2023-07-29T02:24:05;7.03;;;4.80;;
4521;SDS011;2273;48.464;11.926;2023-07-29T02:26:31;6.63;;;4.83;;
4521;SDS011;2273;48.464;11.926;2023-07-29T02:28:56;7.70;;;4.80;;
4521;SDS011;2273;48.464;11.926;2023-07-29T02:31:23;7.23;;;4.57;;
4521;SDS011;2273;48.464;11.926;2023-07-29T02:33:49;5.97;;;4.57;;
4521;SDS011;2273;48.464;11.926;2023-07-29T02:36:16;7.53;;;4.40;;
4521;SDS011;2273;48.464;11.926;2023-07-29T02:38:42;7.37;;;5.00;;
4521;SDS011;2273;48.464;11.926;2023-07-29T02:41:09;7.27;;;4.60;;
4521;SDS011;2273;48.464;11.926;2023-07-29T02:43:37;7.37;;;5.07;;
4521;SDS011;2273;48.464;11.926;2023-07-29T02:46:02;6.63;;;4.90;;
4521;SDS011;2273;48.464;11.926;2023-07-29T02:48:28;6.67;;;4.40;;
4521;SDS011;2273;48.464;11.926;2023-07-29T02:50:54;10.27;;;5.40;;
4521;SDS011;2273;48.464;11.926;2023-07-29T02:53:21;7.57;;;4.90;;
4521;SDS011;2273;48.464;11.926;2023-07-29T02:55:48;6.20;;;4.57;;
4521;SDS011;2273;48.464;11.926;2023-07-29T02:58:13;5.83;;;4.77;;
4521;SDS011;2273;48.464;11.926;2023-07-29T03:00:39;8.13;;;5.43;;
4521;SDS011;2273;48.464;11.926;2023-07-29T03:03:07;7.77;;;5.20;;
4521;SDS011;2273;48.464;11.926;2023-07-29T03:05:33;12.87;;;5.30;;
4521;SDS011;2273;48.464;11.926;2023-07-29T03:07:59;7.57;;;5.60;;
4521;SDS011;2273;48.464;11.926;2023-07-29T03:10:24;7.57;;;5.07;;
4521;SDS011;2273;48.464;11.926;2023-07-29T03:12:50;9.50;;;5.63;;
4521;SDS011;2273;48.464;11.926;2023-07-29T03:15:16;8.30;;;4.80;;
4521;SDS011;2273;48.464;11.926;2023-07-29T03:17:41;10.13;;;5.33;;
4521;SDS011;2273;48.464;11.926;2023-07-29T03:20:07;9.23;;;5.23;;
4521;SDS011;2273;48.464;11.926;2023-07-29T03:22:33;12.03;;;6.00;;
4521;SDS011;2273;48.464;11.926;2023-07-29T03:24:58;7.30;;;5.00;;
4521;SDS011;2273;48.464;11.926;2023-07-29T03:27:24;13.30;;;6.40;;
4521;SDS011;2273;48.464;11.926;2023-07-29T03:29:49;6.67;;;4.30;;
4521;SDS011;2273;48.464;11.926;2023-07-29T03:32:15;7.70;;;4.90;;
4521;SDS011;2273;48.464;11.926;2023-07-29T03:34:40;7.93;;;4.77;;
4521;SDS011;2273;48.464;11.926;2023-07-29T03:37:06;7.33;;;4.87;;
4521;SDS011;2273;48.464;11.926;2023-07-29T03:39:31;12.47;;;5.30;;
4521;SDS011;2273;48.464;11.926;2023-07-29T03:41:57;6.27;;;4.40;;
4521;SDS011;2273;48.464;11.926;2023-07-29T03:44:23;6.37;;;4.70;;
4521;SDS011;2273;48.464;11.926;2023-07-29T03:46:49;8.10;;;5.20;;
4521;SDS011;2273;48.464;11.926;2023-07-29T03:49:14;9.30;;;4.63;;
4521;SDS011;2273;48.464;11.926;2023-07-29T03:51:40;8.53;;;4.70;;
4521;SDS011;2273;48.464;11.926;2023-07-29T03:54:06;6.80;;;4.73;;
4521;SDS011;2273;48.464;11.926;2023-07-29T03:56:31;5.60;;;4.60;;
4521;SDS011;2273;48.464;11.926;2023-07-29T03:59:05;11.27;;;5.30;;
4521;SDS011;2273;48.464;11.926;2023-07-29T04:01:33;10.77;;;5.03;;
4521;SDS011;2273;48.464;11.926;2023-07-29T04:03:58;12.47;;;5.23;;
4521;SDS011;2273;48.464;11.926;2023-07-29T04:06:24;9.10;;;4.87;;
4521;SDS011;2273;48.464;11.926;2023-07-29T04:08:50;7.20;;;4.77;;
4521;SDS011;2273;48.464;11.926;2023-07-29T04:11:16;8.73;;;4.33;;
4521;SDS011;2273;48.464;11.926;2023-07-29T04:13:41;7.90;;;5.33;;
4521;SDS011;2273;48.464;11.926;2023-07-29T04:16:07;5.87;;;4.40;;
4521;SDS011;2273;48.464;11.926;2023-07-29T04:18:32;10.67;;;5.50;;
4521;SDS011;2273;48.464;11.926;2023-07-29T04:20:58;5.60;;;4.40;;
4521;SDS011;2273;48.464;11.926;2023-07-29T04:23:24;7.50;;;5.30;;
4521;SDS011;2273;48.464;11.926;2023-07-29T04:25:49;11.10;;;4.50;;
4521;SDS011;2273;48.464;11.926;2023-07-29T04:28:15;10.60;;;5.20;;
4521;SDS011;2273;48.464;11.926;2023-07-29T04:30:40;6.93;;;4.87;;
4521;SDS011;2273;48.464;11.926;2023-07-29T04:33:06;7.93;;;4.20;;
4521;SDS011;2273;48.464;11.926;2023-07-29T04:35:32;9.53;;;5.97;;
4521;SDS011;2273;48.464;11.926;2023-07-29T04:37:57;8.20;;;5.50;;
4521;SDS011;2273;48.464;11.926;2023-07-29T04:40:23;12.03;;;5.30;;
4521;SDS011;2273;48.464;11.926;2023-07-29T04:42:48;10.20;;;4.60;;
4521;SDS011;2273;48.464;11.926;2023-07-29T04:45:14;10.03;;;5.10;;
4521;SDS011;2273;48.464;11.926;2023-07-29T04:47:41;6.13;;;4.40;;
4521;SDS011;2273;48.464;11.926;2023-07-29T04:50:06;7.67;;;4.53;;
4521;SDS011;2273;48.464;11.926;2023-07-29T04:52:32;10.07;;;4.20;;
4521;SDS011;2273;48.464;11.926;2023-07-29T04:54:58;10.83;;;4.83;;
4521;SDS011;2273;48.464;11.926;2023-07-29T04:57:23;9.50;;;5.07;;
4521;SDS011;2273;48.464;11.926;2023-07-29T04:59:49;6.50;;;4.00;;
4521;SDS011;2273;48.464;11.926;2023-07-29T05:02:14;7.50;;;4.87;;
4521;SDS011;2273;48.464;11.926;2023-07-29T05:04:40;9.10;;;5.17;;
4521;SDS011;2273;48.464;11.926;2023-07-29T05:07:06;9.87;;;4.43;;
4521;SDS011;2273;48.464;11.926;2023-07-29T05:09:31;7.07;;;4.60;;
4521;SDS011;2273;48.464;11.926;2023-07-29T05:11:57;7.13;;;4.60;;
4521;SDS011;2273;48.464;11.926;2023-07-29T05:14:22;5.97;;;4.50;;
4521;SDS011;2273;48.464;11.926;2023-07-29T05:16:48;6.00;;;4.10;;
4521;SDS011;2273;48.464;11.926;2023-07-29T05:19:14;10.00;;;4.80;;
4521;SDS011;2273;48.464;11.926;2023-07-29T05:21:40;9.10;;;4.93;;
4521;SDS011;2273;48.464;11.926;2023-07-29T05:24:06;12.60;;;5.00;;
4521;SDS011;2273;48.464;11.926;2023-07-29T05:26:32;7.30;;;4.43;;
4521;SDS011;2273;48.464;11.926;2023-07-29T05:28:57;7.73;;;3.77;;
4521;SDS011;2273;48.464;11.926;2023-07-29T05:31:23;5.37;;;4.17;;
4521;SDS011;2273;48.464;11.926;2023-07-29T05:33:49;8.00;;;4.40;;
4521;SDS011;2273;48.464;11.926;2023-07-29T05:36:14;8.93;;;4.27;;
4521;SDS011;2273;48.464;11.926;2023-07-29T05:38:41;7.53;;;3.90;;
4521;SDS011;2273;48.464;11.926;2023-07-29T05:41:06;8.57;;;4.70;;
4521;SDS011;2273;48.464;11.926;2023-07-29T05:43:32;6.30;;;4.20;;
4521;SDS011;2273;48.464;11.926;2023-07-29T05:45:57;15.17;;;4.27;;
4521;SDS011;2273;48.464;11.926;2023-07-29T05:48:23;9.03;;;3.47;;
4521;SDS011;2273;48.464;11.926;2023-07-29T05:50:49;9.80;;;3.50;;
4521;SDS011;2273;48.464;11.926;2023-07-29T05:53:15;4.20;;;3.30;;
4521;SDS011;2273;48.464;11.926;2023-07-29T05:55:41;5.17;;;4.10;;
4521;SDS011;2273;48.464;11.926;2023-07-29T05:58:07;10.33;;;3.60;;
4521;SDS011;2273;48.464;11.926;2023-07-29T06:00:34;8.20;;;3.93;;
4521;SDS011;2273;48.464;11.926;2023-07-29T06:03:01;4.80;;;3.07;;
4521;SDS011;2273;48.464;11.926;2023-07-29T06:05:28;5.90;;;3.67;;
4521;SDS011;2273;48.464;11.926;2023-07-29T06:07:54;8.43;;;3.67;;
4521;SDS011;2273;48.464;11.926;2023-07-29T06:10:20;6.30;;;3.57;;
4521;SDS011;2273;48.464;11.926;2023-07-29T06:12:47;6.00;;;3.87;;
4521;SDS011;2273;48.464;11.926;2023-07-29T06:15:13;7.33;;;3.57;;
4521;SDS011;2273;48.464;11.926;2023-07-29T06:17:40;5.67;;;3.20;;
4521;SDS011;2273;48.464;11.926;2023-07-29T06:20:06;5.50;;;2.90;;
4521;SDS011;2273;48.464;11.926;2023-07-29T06:22:32;8.27;;;3.37;;
4521;SDS011;2273;48.464;11.926;2023-07-29T06:24:57;5.80;;;3.47;;
4521;SDS011;2273;48.464;11.926;2023-07-29T06:27:23;6.43;;;3.20;;
4521;SDS011;2273;48.464;11.926;2023-07-29T06:29:51;4.57;;;3.20;;
4521;SDS011;2273;48.464;11.926;2023-07-29T06:32:17;4.60;;;2.93;;
4521;SDS011;2273;48.464;11.926;2023-07-29T06:34:42;3.83;;;2.97;;
4521;SDS011;2273;48.464;11.926;2023-07-29T06:37:08;4.17;;;2.97;;
4521;SDS011;2273;48.464;11.926;2023-07-29T06:39:34;6.10;;;3.07;;
4521;SDS011;2273;48.464;11.926;2023-07-29T06:41:59;4.40;;;3.27;;
4521;SDS011;2273;48.464;11.926;2023-07-29T06:44:25;4.83;;;3.20;;
4521;SDS011;2273;48.464;11.926;2023-07-29T06:46:50;8.23;;;3.27;;
4521;SDS011;2273;48.464;11.926;2023-07-29T06:49:16;3.90;;;3.03;;
4521;SDS011;2273;48.464;11.926;2023-07-29T06:51:41;5.43;;;3.10;;
4521;SDS011;2273;48.464;11.926;2023-07-29T06:54:07;4.73;;;2.93;;
4521;SDS011;2273;48.464;11.926;2023-07-29T06:56:32;4.37;;;3.03;;
4521;SDS011;2273;48.464;11.926;2023-07-29T06:58:58;7.43;;;3.00;;
4521;SDS011;2273;48.464;11.926;2023-07-29T07:01:23;4.50;;;2.80;;
4521;SDS011;2273;48.464;11.926;2023-07-29T07:03:48;4.70;;;2.80;;
4521;SDS011;2273;48.464;11.926;2023-07-29T07:06:14;3.70;;;2.77;;
4521;SDS011;2273;48.464;11.926;2023-07-29T07:08:40;3.90;;;2.70;;
4521;SDS011;2273;48.464;11.926;2023-07-29T07:11:06;8.43;;;2.93;;
4521;SDS011;2273;48.464;11.926;2023-07-29T07:13:32;27.93;;;4.13;;
4521;SDS011;2273;48.464;11.926;2023-07-29T07:15:58;4.00;;;2.97;;
4521;SDS011;2273;48.464;11.926;2023-07-29T07:18:23;4.03;;;3.00;;
4521;SDS011;2273;48.464;11.926;2023-07-29T07:20:49;3.73;;;2.57;;
4521;SDS011;2273;48.464;11.926;2023-07-29T07:23:15;5.03;;;3.00;;
4521;SDS011;2273;48.464;11.926;2023-07-29T07:25:41;4.50;;;2.93;;
4521;SDS011;2273;48.464;11.926;2023-07-29T07:28:10;7.03;;;3.30;;
4521;SDS011;2273;48.464;11.926;2023-07-29T07:30:39;6.90;;;3.00;;
4521;SDS011;2273;48.464;11.926;2023-07-29T07:33:06;4.10;;;3.20;;
4521;SDS011;2273;48.464;11.926;2023-07-29T07:35:31;7.23;;;3.60;;
4521;SDS011;2273;48.464;11.926;2023-07-29T07:37:58;6.90;;;3.20;;
4521;SDS011;2273;48.464;11.926;2023-07-29T07:40:26;7.67;;;3.40;;
4521;SDS011;2273;48.464;11.926;2023-07-29T07:42:52;5.00;;;3.37;;
4521;SDS011;2273;48.464;11.926;2023-07-29T07:45:17;7.50;;;3.67;;
4521;SDS011;2273;48.464;11.926;2023-07-29T07:47:43;7.77;;;3.47;;
4521;SDS011;2273;48.464;11.926;2023-07-29T07:50:09;8.73;;;3.73;;
4521;SDS011;2273;48.464;11.926;2023-07-29T07:52:35;6.83;;;3.40;;
4521;SDS011;2273;48.464;11.926;2023-07-29T07:55:01;7.37;;;3.73;;
4521;SDS011;2273;48.464;11.926;2023-07-29T07:57:27;5.40;;;3.30;;
4521;SDS011;2273;48.464;11.926;2023-07-29T07:59:59;8.30;;;3.30;;
4521;SDS011;2273;48.464;11.926;2023-07-29T08:02:24;10.10;;;3.80;;
4521;SDS011;2273;48.464;11.926;2023-07-29T08:04:50;7.33;;;3.20;;
4521;SDS011;2273;48.464;11.926;2023-07-29T08:07:16;8.17;;;3.90;;
4521;SDS011;2273;48.464;11.926;2023-07-29T08:09:42;6.47;;;3.20;;
4521;SDS011;2273;48.464;11.926;2023-07-29T08:12:07;5.07;;;3.20;;
4521;SDS011;2273;48.464;11.926;2023-07-29T08:14:33;5.30;;;3.57;;
4521;SDS011;2273;48.464;11.926;2023-07-29T08:16:58;4.10;;;3.17;;
4521;SDS011;2273;48.464;11.926;2023-07-29T08:19:24;6.00;;;3.03;;
4521;SDS011;2273;48.464;11.926;2023-07-29T08:21:49;9.10;;;3.63;;
4521;SDS011;2273;48.464;11.926;2023-07-29T08:24:16;4.90;;;3.23;;
4521;SDS011;2273;48.464;11.926;2023-07-29T08:26:42;7.57;;;3.47;;
4521;SDS011;2273;48.464;11.926;2023-07-29T08:29:09;4.00;;;2.87;;
4521;SDS011;2273;48.464;11.926;2023-07-29T08:31:35;6.43;;;3.67;;
4521;SDS011;2273;48.464;11.926;2023-07-29T08:34:01;4.90;;;3.30;;
4521;SDS011;2273;48.464;11.926;2023-07-29T08:36:27;6.40;;;3.43;;
4521;SDS011;2273;48.464;11.926;2023-07-29T08:38:52;7.00;;;3.10;;
4521;SDS011;2273;48.464;11.926;2023-07-29T08:43:52;5.80;;;3.27;;
4521;SDS011;2273;48.464;11.926;2023-07-29T08:46:21;8.33;;;3.30;;
4521;SDS011;2273;48.464;11.926;2023-07-29T08:48:47;12.17;;;3.03;;
4521;SDS011;2273;48.464;11.926;2023-07-29T08:51:13;8.63;;;2.97;;
4521;SDS011;2273;48.464;11.926;2023-07-29T08:53:39;4.10;;;3.00;;
4521;SDS011;2273;48.464;11.926;2023-07-29T08:56:06;4.77;;;3.20;;
4521;SDS011;2273;48.464;11.926;2023-07-29T08:58:32;8.47;;;3.33;;
4521;SDS011;2273;48.464;11.926;2023-07-29T09:00:59;7.60;;;3.20;;
4521;SDS011;2273;48.464;11.926;2023-07-29T09:03:25;4.30;;;3.13;;
4521;SDS011;2273;48.464;11.926;2023-07-29T09:05:56;13.57;;;2.77;;
4521;SDS011;2273;48.464;11.926;2023-07-29T09:08:23;5.13;;;3.13;;
4521;SDS011;2273;48.464;11.926;2023-07-29T09:10:50;7.30;;;3.10;;
4521;SDS011;2273;48.464;11.926;2023-07-29T09:13:15;6.23;;;3.30;;
4521;SDS011;2273;48.464;11.926;2023-07-29T09:15:41;6.80;;;3.03;;
4521;SDS011;2273;48.464;11.926;2023-07-29T09:20:42;4.47;;;3.30;;
4521;SDS011;2273;48.464;11.926;2023-07-29T09:23:08;6.73;;;3.03;;
4521;SDS011;2273;48.464;11.926;2023-07-29T09:25:35;4.23;;;2.83;;
4521;SDS011;2273;48.464;11.926;2023-07-29T09:28:02;5.70;;;3.10;;
4521;SDS011;2273;48.464;11.926;2023-07-29T09:30:37;5.90;;;3.83;;
4521;SDS011;2273;48.464;11.926;2023-07-29T09:33:06;6.77;;;3.87;;
4521;SDS011;2273;48.464;11.926;2023-07-29T09:35:34;6.83;;;3.87;;
4521;SDS011;2273;48.464;11.926;2023-07-29T09:38:01;5.23;;;3.07;;
4521;SDS011;2273;48.464;11.926;2023-07-29T09:40:27;6.27;;;3.47;;
4521;SDS011;2273;48.464;11.926;2023-07-29T09:42:59;5.47;;;3.67;;
4521;SDS011;2273;48.464;11.926;2023-07-29T09:45:25;5.30;;;3.47;;
4521;SDS011;2273;48.464;11.926;2023-07-29T09:47:52;4.07;;;2.90;;
4521;SDS011;2273;48.464;11.926;2023-07-29T09:50:26;9.40;;;4.00;;
4521;SDS011;2273;48.464;11.926;2023-07-29T09:52:53;5.37;;;3.20;;
4521;SDS011;2273;48.464;11.926;2023-07-29T09:55:23;4.77;;;2.97;;
4521;SDS011;2273;48.464;11.926;2023-07-29T09:57:59;4.83;;;3.20;;
4521;SDS011;2273;48.464;11.926;2023-07-29T10:00:30;4.77;;;3.43;;
4521;SDS011;2273;48.464;11.926;2023-07-29T10:02:57;5.13;;;3.10;;
4521;SDS011;2273;48.464;11.926;2023-07-29T10:05:27;6.70;;;3.00;;
4521;SDS011;2273;48.464;11.926;2023-07-29T10:07:53;4.83;;;3.33;;
4521;SDS011;2273;48.464;11.926;2023-07-29T10:10:20;9.40;;;2.90;;
4521;SDS011;2273;48.464;11.926;2023-07-29T10:12:45;6.90;;;3.20;;
4521;SDS011;2273;48.464;11.926;2023-07-29T10:15:11;4.60;;;3.20;;
4521;SDS011;2273;48.464;11.926;2023-07-29T10:17:38;6.83;;;3.30;;
4521;SDS011;2273;48.464;11.926;2023-07-29T10:20:13;7.00;;;3.57;;
4521;SDS011;2273;48.464;11.926;2023-07-29T10:22:42;5.20;;;3.10;;
4521;SDS011;2273;48.464;11.926;2023-07-29T10:25:16;6.07;;;3.50;;
4521;SDS011;2273;48.464;11.926;2023-07-29T10:27:52;4.80;;;2.70;;
4521;SDS011;2273;48.464;11.926;2023-07-29T10:30:22;8.70;;;5.43;;
4521;SDS011;2273;48.464;11.926;2023-07-29T10:32:49;7.13;;;4.13;;
4521;SDS011;2273;48.464;11.926;2023-07-29T10:35:15;5.73;;;3.23;;
4521;SDS011;2273;48.464;11.926;2023-07-29T10:37:41;5.23;;;3.33;;
4521;SDS011;2273;48.464;11.926;2023-07-29T10:40:08;8.13;;;3.60;;
4521;SDS011;2273;48.464;11.926;2023-07-29T10:42:35;4.43;;;3.30;;
4521;SDS011;2273;48.464;11.926;2023-07-29T10:45:16;4.40;;;3.40;;
4521;SDS011;2273;48.464;11.926;2023-07-29T10:47:43;6.53;;;3.87;;
4521;SDS011;2273;48.464;11.926;2023-07-29T10:50:16;5.30;;;3.40;;
4521;SDS011;2273;48.464;11.926;2023-07-29T10:52:48;19.87;;;4.57;;
4521;SDS011;2273;48.464;11.926;2023-07-29T10:55:23;15.10;;;4.00;;
4521;SDS011;2273;48.464;11.926;2023-07-29T10:57:51;12.23;;;3.83;;
4521;SDS011;2273;48.464;11.926;2023-07-29T11:00:18;11.23;;;3.13;;
4521;SDS011;2273;48.464;11.926;2023-07-29T11:02:59;5.20;;;2.53;;
4521;SDS011;2273;48.464;11.926;2023-07-29T11:08:26;4.53;;;2.30;;
4521;SDS011;2273;48.464;11.926;2023-07-29T11:11:03;6.63;;;2.67;;
4521;SDS011;2273;48.464;11.926;2023-07-29T11:13:30;7.50;;;2.80;;
4521;SDS011;2273;48.464;11.926;2023-07-29T11:15:56;4.93;;;2.23;;
4521;SDS011;2273;48.464;11.926;2023-07-29T11:18:31;7.23;;;2.70;;
4521;SDS011;2273;48.464;11.926;2023-07-29T11:20:58;4.23;;;2.57;;
4521;SDS011;2273;48.464;11.926;2023-07-29T11:23:30;5.23;;;3.03;;
4521;SDS011;2273;48.464;11.926;2023-07-29T11:26:00;12.60;;;3.33;;
4521;SDS011;2273;48.464;11.926;2023-07-29T11:28:27;8.00;;;3.20;;
4521;SDS011;2273;48.464;11.926;2023-07-29T11:30:53;5.93;;;2.70;;
4521;SDS011;2273;48.464;11.926;2023-07-29T11:33:20;8.07;;;3.30;;
4521;SDS011;2273;48.464;11.926;2023-07-29T11:35:47;4.03;;;2.90;;
4521;SDS011;2273;48.464;11.926;2023-07-29T11:38:17;8.37;;;3.00;;
4521;SDS011;2273;48.464;11.926;2023-07-29T11:40:43;5.87;;;2.60;;
4521;SDS011;2273;48.464;11.926;2023-07-29T11:43:17;4.37;;;3.10;;
4521;SDS011;2273;48.464;11.926;2023-07-29T11:45:44;4.57;;;2.60;;
4521;SDS011;2273;48.464;11.926;2023-07-29T11:48:10;9.50;;;2.80;;
4521;SDS011;2273;48.464;11.926;2023-07-29T11:50:35;3.83;;;2.43;;
4521;SDS011;2273;48.464;11.926;2023-07-29T11:53:01;4.67;;;3.10;;
4521;SDS011;2273;48.464;11.926;2023-07-29T11:55:26;4.10;;;2.60;;
4521;SDS011;2273;48.464;11.926;2023-07-29T11:57:51;5.60;;;3.23;;
4521;SDS011;2273;48.464;11.926;2023-07-29T12:00:17;5.77;;;2.73;;
4521;SDS011;2273;48.464;11.926;2023-07-29T12:02:43;6.10;;;3.27;;
4521;SDS011;2273;48.464;11.926;2023-07-29T12:05:10;5.40;;;3.50;;
4521;SDS011;2273;48.464;11.926;2023-07-29T12:07:38;5.07;;;2.77;;
4521;SDS011;2273;48.464;11.926;2023-07-29T12:10:04;6.80;;;2.80;;
4521;SDS011;2273;48.464;11.926;2023-07-29T12:12:30;9.40;;;2.70;;
4521;SDS011;2273;48.464;11.926;2023-07-29T12:14:57;4.83;;;2.30;;
4521;SDS011;2273;48.464;11.926;2023-07-29T12:17:30;5.70;;;3.10;;
4521;SDS011;2273;48.464;11.926;2023-07-29T12:19:56;4.20;;;2.93;;
4521;SDS011;2273;48.464;11.926;2023-07-29T12:22:22;5.97;;;3.10;;
4521;SDS011;2273;48.464;11.926;2023-07-29T12:24:50;6.90;;;3.33;;
4521;SDS011;2273;48.464;11.926;2023-07-29T12:27:16;4.90;;;3.00;;
4521;SDS011;2273;48.464;11.926;2023-07-29T12:29:42;6.20;;;2.97;;
4521;SDS011;2273;48.464;11.926;2023-07-29T12:32:09;4.27;;;2.87;;
4521;SDS011;2273;48.464;11.926;2023-07-29T12:34:35;8.23;;;2.67;;
4521;SDS011;2273;48.464;11.926;2023-07-29T12:37:02;3.93;;;2.40;;
4521;SDS011;2273;48.464;11.926;2023-07-29T12:39:29;4.90;;;2.77;;
4521;SDS011;2273;48.464;11.926;2023-07-29T12:41:57;4.70;;;3.10;;
4521;SDS011;2273;48.464;11.926;2023-07-29T12:44:24;8.10;;;3.03;;
4521;SDS011;2273;48.464;11.926;2023-07-29T12:46:50;4.20;;;3.03;;
4521;SDS011;2273;48.464;11.926;2023-07-29T12:49:16;9.27;;;3.13;;
4521;SDS011;2273;48.464;11.926;2023-07-29T12:51:42;4.23;;;2.80;;
4521;SDS011;2273;48.464;11.926;2023-07-29T12:54:08;6.13;;;2.93;;
4521;SDS011;2273;48.464;11.926;2023-07-29T12:56:33;4.20;;;2.73;;
4521;SDS011;2273;48.464;11.926;2023-07-29T12:58:59;4.23;;;2.97;;
4521;SDS011;2273;48.464;11.926;2023-07-29T13:01:26;4.30;;;3.13;;
4521;SDS011;2273;48.464;11.926;2023-07-29T13:03:51;5.93;;;3.37;;
4521;SDS011;2273;48.464;11.926;2023-07-29T13:06:17;5.90;;;3.13;;
4521;SDS011;2273;48.464;11.926;2023-07-29T13:08:43;5.00;;;3.03;;
4521;SDS011;2273;48.464;11.926;2023-07-29T13:11:09;3.93;;;2.67;;
4521;SDS011;2273;48.464;11.926;2023-07-29T13:13:35;5.23;;;3.20;;
4521;SDS011;2273;48.464;11.926;2023-07-29T13:16:00;6.87;;;3.00;;
4521;SDS011;2273;48.464;11.926;2023-07-29T13:18:26;8.03;;;3.77;;
4521;SDS011;2273;48.464;11.926;2023-07-29T13:20:55;3.73;;;2.80;;
4521;SDS011;2273;48.464;11.926;2023-07-29T13:23:20;3.20;;;2.70;;
4521;SDS011;2273;48.464;11.926;2023-07-29T13:25:46;4.77;;;2.77;;
4521;SDS011;2273;48.464;11.926;2023-07-29T13:28:12;4.73;;;3.27;;
4521;SDS011;2273;48.464;11.926;2023-07-29T13:30:40;5.80;;;2.30;;
4521;SDS011;2273;48.464;11.926;2023-07-29T13:33:06;8.20;;;3.40;;
4521;SDS011;2273;48.464;11.926;2023-07-29T13:35:32;6.30;;;2.90;;
4521;SDS011;2273;48.464;11.926;2023-07-29T13:37:58;4.20;;;2.70;;
4521;SDS011;2273;48.464;11.926;2023-07-29T13:40:23;4.67;;;2.90;;
4521;SDS011;2273;48.464;11.926;2023-07-29T13:42:49;4.23;;;3.17;;
4521;SDS011;2273;48.464;11.926;2023-07-29T13:45:14;3.97;;;2.97;;
4521;SDS011;2273;48.464;11.926;2023-07-29T13:47:40;3.50;;;2.80;;
4521;SDS011;2273;48.464;11.926;2023-07-29T13:50:05;3.53;;;2.83;;
4521;SDS011;2273;48.464;11.926;2023-07-29T13:52:33;8.90;;;2.80;;
4521;SDS011;2273;48.464;11.926;2023-07-29T13:54:58;4.17;;;2.90;;
4521;SDS011;2273;48.464;11.926;2023-07-29T13:57:24;3.50;;;2.50;;
4521;SDS011;2273;48.464;11.926;2023-07-29T13:59:49;4.80;;;2.70;;
4521;SDS011;2273;48.464;11.926;2023-07-29T14:02:15;2.83;;;2.30;;
4521;SDS011;2273;48.464;11.926;2023-07-29T14:04:40;2.70;;;2.10;;
4521;SDS011;2273;48.464;11.926;2023-07-29T14:07:07;8.60;;;2.20;;
4521;SDS011;2273;48.464;11.926;2023-07-29T14:09:32;2.37;;;1.60;;
4521;SDS011;2273;48.464;11.926;2023-07-29T14:11:57;4.30;;;2.40;;
4521;SDS011;2273;48.464;11.926;2023-07-29T14:14:23;5.13;;;2.10;;
4521;SDS011;2273;48.464;11.926;2023-07-29T14:16:48;2.27;;;1.70;;
4521;SDS011;2273;48.464;11.926;2023-07-29T14:19:14;7.63;;;1.90;;
4521;SDS011;2273;48.464;11.926;2023-07-29T14:21:39;9.00;;;2.00;;
4521;SDS011;2273;48.464;11.926;2023-07-29T14:24:05;3.73;;;2.10;;
4521;SDS011;2273;48.464;11.926;2023-07-29T14:26:30;4.33;;;2.37;;
4521;SDS011;2273;48.464;11.926;2023-07-29T14:28:56;3.03;;;2.03;;
4521;SDS011;2273;48.464;11.926;2023-07-29T14:31:21;2.60;;;1.63;;
4521;SDS011;2273;48.464;11.926;2023-07-29T14:33:47;3.00;;;2.27;;
4521;SDS011;2273;48.464;11.926;2023-07-29T14:36:14;2.53;;;1.73;;
4521;SDS011;2273;48.464;11.926;2023-07-29T14:38:39;3.70;;;1.97;;
4521;SDS011;2273;48.464;11.926;2023-07-29T14:41:05;3.87;;;2.43;;
4521;SDS011;2273;48.464;11.926;2023-07-29T14:43:30;3.20;;;2.40;;
4521;SDS011;2273;48.464;11.926;2023-07-29T14:45:57;4.73;;;2.10;;
4521;SDS011;2273;48.464;11.926;2023-07-29T14:48:23;2.83;;;1.80;;
4521;SDS011;2273;48.464;11.926;2023-07-29T14:50:48;6.63;;;2.20;;
4521;SDS011;2273;48.464;11.926;2023-07-29T14:53:14;9.60;;;2.40;;
4521;SDS011;2273;48.464;11.926;2023-07-29T14:55:39;8.67;;;2.03;;
4521;SDS011;2273;48.464;11.926;2023-07-29T14:58:04;2.57;;;2.03;;
4521;SDS011;2273;48.464;11.926;2023-07-29T15:00:30;2.53;;;1.60;;
4521;SDS011;2273;48.464;11.926;2023-07-29T15:02:55;2.73;;;2.17;;
4521;SDS011;2273;48.464;11.926;2023-07-29T15:05:21;3.87;;;2.07;;
4521;SDS011;2273;48.464;11.926;2023-07-29T15:07:46;3.03;;;2.20;;
4521;SDS011;2273;48.464;11.926;2023-07-29T15:10:14;4.17;;;2.13;;
4521;SDS011;2273;48.464;11.926;2023-07-29T15:12:40;13.63;;;2.57;;